Glen Ridge, Illinois
Current Conditions -  °F | °C
As of 12:55 AM on Monday 24 Nov 2014 (Local Time) from KENL Reporting Station
Heavy Rain Heavy Rain  
Wind Chill: 55°   Ceiling: 1200
Heat Index: 55°   Visibility: 5mi
Dew Point: 53°   Wind: 6mph
Humidity: 91%   Direction: 210°SSW
Pressure: 29.21"   Gusts: NA
Location:  38.663°N, 89.0946°W
Report Text: KENL 240655Z AUTO 21005KT 5SM +RA BKN012 OVC017 13/12 A2921 RMK AO2 P0005 T01300115
Loading
Personal Weather Stations






























Interactive Weather Map New forecast layout! Learn more

10-Day Weather Forecast

Advertisements
Track Severe Weather on mobile